CDT,Max TemperatureF,Mean TemperatureF,Min TemperatureF,Max Dew PointF,MeanDew PointF,Min DewpointF,Max Humidity, Mean Humidity, Min Humidity, Max Sea Level PressureIn, Mean Sea Level PressureIn, Min Sea Level PressureIn, Max VisibilityMiles, Mean VisibilityMiles, Min VisibilityMiles, Max Wind SpeedMPH, Mean Wind SpeedMPH, Max Gust SpeedMPH,PrecipitationIn, CloudCover, Events, WindDirDegrees
2013-3-1,26,20,14,14,11,5,79,65,50,30.25,30.20,30.15,10,10,7,13,9,17,0.57,3,Snow,21
2013-3-2,28,13,-2,12,3,-8,92,61,31,30.23,30.17,30.10,10,10,4,8,3,,0.13,0,,344
2013-3-3,24,11,-2,7,0,-8,92,62,34,30.10,30.05,30.01,10,10,5,7,1,,0.66,0,,143
2013-3-4,28,16,3,16,8,-6,85,63,37,30.05,30.02,29.99,10,10,10,18,7,25,0.19,4,,99
2013-3-5,26,24,21,23,17,12,86,73,59,30.14,30.02,29.95,10,8,1,18,9,21,0.02,8,Snow,44
2013-3-6,30,24,17,19,16,10,93,74,55,30.27,30.22,30.14,10,10,10,12,7,16,0.00,4,,319
2013-3-7,26,14,1,16,9,-2,93,72,55,30.35,30.32,30.27,10,10,7,7,1,,0.00,0,,145
2013-3-8,37,27,17,25,19,12,93,74,56,30.36,30.29,30.17,10,10,7,12,7,,0.00,0,,149
2013-3-9,35,32,28,34,29,23,100,86,75,30.16,29.91,29.72,10,5,1,16,9,29,0.00,7,Rain-Snow,137
2013-3-10,35,32,28,34,31,27,100,91,81,29.87,29.78,29.70,10,5,0,21,6,28,0.00,8,Fog-Rain-Snow,20
2013-3-11,28,26,21,27,21,18,93,85,74,29.72,29.66,29.58,10,7,1,15,12,22,0.35,8,Snow,335
2013-3-12,26,22,17,19,16,12,93,79,55,29.99,29.79,29.69,10,8,2,17,9,22,0.41,8,Snow,298
2013-3-13,30,20,10,12,5,0,92,56,29,30.22,30.16,30.01,10,10,5,14,9,21,0.00,1,Snow,291
2013-3-14,30,18,5,27,14,1,93,77,54,30.21,30.10,29.96,10,10,5,8,3,,0.02,4,,204
2013-3-15,33,28,23,27,23,21,93,82,60,29.96,29.87,29.81,10,5,1,12,5,,0.37,6,Snow,21
2013-3-16,24,20,15,21,11,3,93,70,54,30.09,29.95,29.83,10,8,1,15,9,21,0.00,5,Snow,343
2013-3-17,21,10,-2,10,3,-6,85,65,42,30.20,30.11,29.95,10,10,10,15,7,18,0.55,1,,95
2013-3-18,28,22,15,27,17,10,93,85,79,29.94,29.65,29.49,10,5,0,22,12,28,0.47,7,Snow,150
2013-3-19,24,17,10,10,6,1,86,67,46,29.93,29.75,29.54,10,6,2,24,17,31,0.00,4,Snow,274
2013-3-20,17,9,1,3,-1,-6,72,61,53,30.00,29.96,29.93,10,10,10,16,12,24,0.00,3,,297
2013-3-21,26,13,0,10,5,-6,92,69,50,29.99,29.97,29.93,10,10,7,10,4,,0.00,2,Snow,279
2013-3-22,33,16,-2,16,9,-6,92,68,41,30.01,29.98,29.95,10,9,2,5,1,,0.06,1,,360
2013-3-23,35,20,6,21,16,3,93,73,52,30.09,30.05,30.01,10,10,3,6,1,,0.03,4,,59
2013-3-24,32,28,23,23,21,18,80,73,64,30.04,29.94,29.86,10,10,10,18,7,23,0.12,8,Snow,37
2013-3-25,35,26,17,21,19,14,93,72,48,30.11,29.98,29.90,10,10,10,17,8,22,0.49,5,,355
2013-3-26,37,29,21,23,20,18,86,69,45,30.22,30.16,30.11,10,10,10,10,4,,2.17,8,Snow,335
2013-3-27,39,32,26,23,18,14,75,57,38,30.26,30.24,30.22,10,10,10,9,1,,1.30,5,,309
2013-3-28,41,28,15,21,18,12,93,62,42,30.29,30.27,30.23,10,10,3,14,2,,0.00,0,,236
2013-3-29,44,30,17,21,18,12,86,55,31,30.28,30.22,30.13,10,10,10,7,1,,0.00,2,,174
2013-3-30,39,36,32,37,31,21,100,83,52,30.12,29.90,29.77,10,4,0,15,7,21,0.00,8,Fog-Rain-Snow,194
2013-3-31,37,32,24,34,24,9,100,73,35,29.91,29.73,29.66,10,6,0,22,10,30,0.00,6,Fog-Snow,289